Terminal Aerodrome Forecast
Issued by NWS

Home | Current Version | Previous Version | Text Only | Print | Product List | Glossary On
Versions: 1 2 3 4 5 6 7 8 9 10 11 12
234
FTUS45 KPSR 231728
TAFIPL
TAF
KIPL 231728Z 2318/2418 VRB05KT P6SM SKC
     FM232000 36006KT P6SM SKC
     FM240300 28006KT P6SM SKC
     FM241700 34010KT P6SM SKC=

USA.gov is the U.S. government's official web portal to all federal, state and local government web resources and services.